sensor_id;sensor_type;location;lat;lon;timestamp;temperature;humidity
30520;DHT22;17300;50.374;8.006;2023-08-07T00:01:22;17.60;58.00
30520;DHT22;17300;50.374;8.006;2023-08-07T00:03:48;17.60;58.10
30520;DHT22;17300;50.374;8.006;2023-08-07T00:06:15;17.60;58.10
30520;DHT22;17300;50.374;8.006;2023-08-07T00:08:41;17.60;58.20
30520;DHT22;17300;50.374;8.006;2023-08-07T00:11:09;17.50;58.10
30520;DHT22;17300;50.374;8.006;2023-08-07T00:13:37;17.50;58.10
30520;DHT22;17300;50.374;8.006;2023-08-07T00:16:04;17.60;58.10
30520;DHT22;17300;50.374;8.006;2023-08-07T00:18:31;17.60;58.10
30520;DHT22;17300;50.374;8.006;2023-08-07T00:20:57;17.60;58.20
30520;DHT22;17300;50.374;8.006;2023-08-07T00:23:25;17.50;58.10
30520;DHT22;17300;50.374;8.006;2023-08-07T00:25:52;17.50;58.10
30520;DHT22;17300;50.374;8.006;2023-08-07T00:28:18;17.50;58.10
30520;DHT22;17300;50.374;8.006;2023-08-07T00:30:46;17.50;58.00
30520;DHT22;17300;50.374;8.006;2023-08-07T00:33:13;17.50;58.10
30520;DHT22;17300;50.374;8.006;2023-08-07T00:35:39;17.50;58.10
30520;DHT22;17300;50.374;8.006;2023-08-07T00:38:06;17.50;58.10
30520;DHT22;17300;50.374;8.006;2023-08-07T00:40:37;17.40;58.10
30520;DHT22;17300;50.374;8.006;2023-08-07T00:43:04;17.50;58.30
30520;DHT22;17300;50.374;8.006;2023-08-07T00:45:35;17.40;58.20
30520;DHT22;17300;50.374;8.006;2023-08-07T00:48:04;17.40;58.50
30520;DHT22;17300;50.374;8.006;2023-08-07T00:50:31;17.50;58.40
30520;DHT22;17300;50.374;8.006;2023-08-07T00:52:58;17.40;58.20
30520;DHT22;17300;50.374;8.006;2023-08-07T00:55:25;17.50;58.30
30520;DHT22;17300;50.374;8.006;2023-08-07T00:57:51;17.50;58.40
30520;DHT22;17300;50.374;8.006;2023-08-07T01:00:19;17.50;58.40
30520;DHT22;17300;50.374;8.006;2023-08-07T01:02:47;17.50;58.30
30520;DHT22;17300;50.374;8.006;2023-08-07T01:05:17;17.50;58.30
30520;DHT22;17300;50.374;8.006;2023-08-07T01:07:47;17.50;58.40
30520;DHT22;17300;50.374;8.006;2023-08-07T01:10:17;17.60;58.50
30520;DHT22;17300;50.374;8.006;2023-08-07T01:12:48;17.60;58.40
30520;DHT22;17300;50.374;8.006;2023-08-07T01:15:24;17.60;58.40
30520;DHT22;17300;50.374;8.006;2023-08-07T01:17:52;17.60;58.40
30520;DHT22;17300;50.374;8.006;2023-08-07T01:20:21;17.60;58.30
30520;DHT22;17300;50.374;8.006;2023-08-07T01:22:49;17.60;58.30
30520;DHT22;17300;50.374;8.006;2023-08-07T01:25:16;17.60;58.90
30520;DHT22;17300;50.374;8.006;2023-08-07T01:27:49;17.70;58.30
30520;DHT22;17300;50.374;8.006;2023-08-07T01:30:22;17.70;58.90
30520;DHT22;17300;50.374;8.006;2023-08-07T01:32:58;17.70;58.30
30520;DHT22;17300;50.374;8.006;2023-08-07T01:35:29;17.70;58.30
30520;DHT22;17300;50.374;8.006;2023-08-07T01:37:58;17.60;58.50
30520;DHT22;17300;50.374;8.006;2023-08-07T01:40:27;17.70;58.30
30520;DHT22;17300;50.374;8.006;2023-08-07T01:42:54;17.70;58.30
30520;DHT22;17300;50.374;8.006;2023-08-07T01:45:25;17.70;58.30
30520;DHT22;17300;50.374;8.006;2023-08-07T01:47:52;17.60;58.20
30520;DHT22;17300;50.374;8.006;2023-08-07T01:50:19;17.60;58.00
30520;DHT22;17300;50.374;8.006;2023-08-07T01:52:46;17.60;58.00
30520;DHT22;17300;50.374;8.006;2023-08-07T01:55:15;17.60;58.00
30520;DHT22;17300;50.374;8.006;2023-08-07T01:57:42;17.50;58.10
30520;DHT22;17300;50.374;8.006;2023-08-07T02:00:10;17.50;58.10
30520;DHT22;17300;50.374;8.006;2023-08-07T02:02:38;17.50;58.10
30520;DHT22;17300;50.374;8.006;2023-08-07T02:05:05;17.40;58.10
30520;DHT22;17300;50.374;8.006;2023-08-07T02:07:31;17.40;58.10
30520;DHT22;17300;50.374;8.006;2023-08-07T02:09:58;17.40;58.20
30520;DHT22;17300;50.374;8.006;2023-08-07T02:12:26;17.40;58.20
30520;DHT22;17300;50.374;8.006;2023-08-07T02:14:55;17.40;58.30
30520;DHT22;17300;50.374;8.006;2023-08-07T02:17:21;17.30;58.20
30520;DHT22;17300;50.374;8.006;2023-08-07T02:19:48;17.30;58.40
30520;DHT22;17300;50.374;8.006;2023-08-07T02:22:15;17.30;58.50
30520;DHT22;17300;50.374;8.006;2023-08-07T02:24:41;17.30;58.60
30520;DHT22;17300;50.374;8.006;2023-08-07T02:27:08;17.30;58.60
30520;DHT22;17300;50.374;8.006;2023-08-07T02:29:36;17.30;58.60
30520;DHT22;17300;50.374;8.006;2023-08-07T02:32:03;17.30;58.60
30520;DHT22;17300;50.374;8.006;2023-08-07T02:34:30;17.20;58.50
30520;DHT22;17300;50.374;8.006;2023-08-07T02:36:57;17.30;58.60
30520;DHT22;17300;50.374;8.006;2023-08-07T02:39:24;17.30;58.60
30520;DHT22;17300;50.374;8.006;2023-08-07T02:41:51;17.20;58.50
30520;DHT22;17300;50.374;8.006;2023-08-07T02:44:18;17.20;58.60
30520;DHT22;17300;50.374;8.006;2023-08-07T02:46:46;17.20;58.60
30520;DHT22;17300;50.374;8.006;2023-08-07T02:49:13;17.20;58.70
30520;DHT22;17300;50.374;8.006;2023-08-07T02:51:40;17.20;58.60
30520;DHT22;17300;50.374;8.006;2023-08-07T02:54:06;17.20;58.60
30520;DHT22;17300;50.374;8.006;2023-08-07T02:56:33;17.20;58.50
30520;DHT22;17300;50.374;8.006;2023-08-07T02:59:00;17.20;58.60
30520;DHT22;17300;50.374;8.006;2023-08-07T03:01:27;17.20;58.60
30520;DHT22;17300;50.374;8.006;2023-08-07T03:03:55;17.10;58.60
30520;DHT22;17300;50.374;8.006;2023-08-07T03:06:22;17.10;58.60
30520;DHT22;17300;50.374;8.006;2023-08-07T03:08:48;17.10;58.60
30520;DHT22;17300;50.374;8.006;2023-08-07T03:11:16;17.10;59.30
30520;DHT22;17300;50.374;8.006;2023-08-07T03:13:43;17.10;58.80
30520;DHT22;17300;50.374;8.006;2023-08-07T03:16:10;17.10;58.80
30520;DHT22;17300;50.374;8.006;2023-08-07T03:18:37;17.00;58.90
30520;DHT22;17300;50.374;8.006;2023-08-07T03:21:05;17.10;59.00
30520;DHT22;17300;50.374;8.006;2023-08-07T03:23:32;17.00;58.90
30520;DHT22;17300;50.374;8.006;2023-08-07T03:26:03;17.00;58.90
30520;DHT22;17300;50.374;8.006;2023-08-07T03:28:30;17.00;59.00
30520;DHT22;17300;50.374;8.006;2023-08-07T03:30:56;17.10;59.00
30520;DHT22;17300;50.374;8.006;2023-08-07T03:33:23;17.10;59.00
30520;DHT22;17300;50.374;8.006;2023-08-07T03:35:49;17.10;59.10
30520;DHT22;17300;50.374;8.006;2023-08-07T03:38:18;17.10;59.00
30520;DHT22;17300;50.374;8.006;2023-08-07T03:40:44;17.10;59.00
30520;DHT22;17300;50.374;8.006;2023-08-07T03:43:11;17.20;59.00
30520;DHT22;17300;50.374;8.006;2023-08-07T03:45:38;17.20;58.90
30520;DHT22;17300;50.374;8.006;2023-08-07T03:48:05;17.10;58.80
30520;DHT22;17300;50.374;8.006;2023-08-07T03:50:32;17.20;58.80
30520;DHT22;17300;50.374;8.006;2023-08-07T03:53:02;17.20;58.80
30520;DHT22;17300;50.374;8.006;2023-08-07T03:55:30;17.20;58.70
30520;DHT22;17300;50.374;8.006;2023-08-07T03:57:57;17.20;58.80
30520;DHT22;17300;50.374;8.006;2023-08-07T04:00:24;17.20;58.70
30520;DHT22;17300;50.374;8.006;2023-08-07T04:02:50;17.20;58.80
30520;DHT22;17300;50.374;8.006;2023-08-07T04:05:17;17.20;58.90
30520;DHT22;17300;50.374;8.006;2023-08-07T04:07:44;17.20;58.80
30520;DHT22;17300;50.374;8.006;2023-08-07T04:10:15;17.20;58.80
30520;DHT22;17300;50.374;8.006;2023-08-07T04:12:46;17.20;58.90
30520;DHT22;17300;50.374;8.006;2023-08-07T04:15:15;17.20;58.80
30520;DHT22;17300;50.374;8.006;2023-08-07T04:17:42;17.30;58.90
30520;DHT22;17300;50.374;8.006;2023-08-07T04:20:09;17.30;58.90
30520;DHT22;17300;50.374;8.006;2023-08-07T04:22:36;17.30;58.90
30520;DHT22;17300;50.374;8.006;2023-08-07T04:25:03;17.30;58.90
30520;DHT22;17300;50.374;8.006;2023-08-07T04:27:30;17.30;59.50
30520;DHT22;17300;50.374;8.006;2023-08-07T04:29:58;17.30;58.90
30520;DHT22;17300;50.374;8.006;2023-08-07T04:32:25;17.30;58.90
30520;DHT22;17300;50.374;8.006;2023-08-07T04:34:52;17.30;58.90
30520;DHT22;17300;50.374;8.006;2023-08-07T04:37:18;17.30;58.90
30520;DHT22;17300;50.374;8.006;2023-08-07T04:39:45;17.30;58.90
30520;DHT22;17300;50.374;8.006;2023-08-07T04:42:12;17.30;59.00
30520;DHT22;17300;50.374;8.006;2023-08-07T04:44:38;17.30;58.90
30520;DHT22;17300;50.374;8.006;2023-08-07T04:47:07;17.30;58.90
30520;DHT22;17300;50.374;8.006;2023-08-07T04:49:33;17.40;59.00
30520;DHT22;17300;50.374;8.006;2023-08-07T04:52:00;17.40;59.00
30520;DHT22;17300;50.374;8.006;2023-08-07T04:54:27;17.40;59.00
30520;DHT22;17300;50.374;8.006;2023-08-07T04:56:54;17.40;59.00
30520;DHT22;17300;50.374;8.006;2023-08-07T04:59:20;17.40;59.00
30520;DHT22;17300;50.374;8.006;2023-08-07T05:01:47;17.50;59.00
30520;DHT22;17300;50.374;8.006;2023-08-07T05:04:15;17.50;59.00
30520;DHT22;17300;50.374;8.006;2023-08-07T05:06:42;17.50;59.00
30520;DHT22;17300;50.374;8.006;2023-08-07T05:09:09;17.50;58.90
30520;DHT22;17300;50.374;8.006;2023-08-07T05:11:35;17.50;59.00
30520;DHT22;17300;50.374;8.006;2023-08-07T05:14:02;17.50;59.00
30520;DHT22;17300;50.374;8.006;2023-08-07T05:16:29;17.50;59.10
30520;DHT22;17300;50.374;8.006;2023-08-07T05:18:55;17.50;59.20
30520;DHT22;17300;50.374;8.006;2023-08-07T05:21:23;17.50;59.40
30520;DHT22;17300;50.374;8.006;2023-08-07T05:23:50;17.60;59.70
30520;DHT22;17300;50.374;8.006;2023-08-07T05:26:20;17.60;60.20
30520;DHT22;17300;50.374;8.006;2023-08-07T05:28:47;17.70;60.30
30520;DHT22;17300;50.374;8.006;2023-08-07T05:31:13;17.80;60.50
30520;DHT22;17300;50.374;8.006;2023-08-07T05:33:40;17.90;60.60
30520;DHT22;17300;50.374;8.006;2023-08-07T05:36:07;18.00;60.20
30520;DHT22;17300;50.374;8.006;2023-08-07T05:38:35;18.10;60.20
30520;DHT22;17300;50.374;8.006;2023-08-07T05:41:01;18.20;60.30
30520;DHT22;17300;50.374;8.006;2023-08-07T05:43:28;18.30;60.30
30520;DHT22;17300;50.374;8.006;2023-08-07T05:45:55;18.30;60.40
30520;DHT22;17300;50.374;8.006;2023-08-07T05:48:21;18.50;60.10
30520;DHT22;17300;50.374;8.006;2023-08-07T05:50:48;18.50;59.60
30520;DHT22;17300;50.374;8.006;2023-08-07T05:53:15;18.60;59.50
30520;DHT22;17300;50.374;8.006;2023-08-07T05:55:43;18.60;59.20
30520;DHT22;17300;50.374;8.006;2023-08-07T05:58:10;18.70;59.10
30520;DHT22;17300;50.374;8.006;2023-08-07T06:00:37;18.70;58.90
30520;DHT22;17300;50.374;8.006;2023-08-07T06:03:04;18.70;59.00
30520;DHT22;17300;50.374;8.006;2023-08-07T06:05:30;18.70;59.10
30520;DHT22;17300;50.374;8.006;2023-08-07T06:07:57;18.70;59.60
30520;DHT22;17300;50.374;8.006;2023-08-07T06:10:24;18.70;58.80
30520;DHT22;17300;50.374;8.006;2023-08-07T06:12:52;18.70;58.70
30520;DHT22;17300;50.374;8.006;2023-08-07T06:15:20;18.60;58.60
30520;DHT22;17300;50.374;8.006;2023-08-07T06:17:46;18.60;58.60
30520;DHT22;17300;50.374;8.006;2023-08-07T06:20:13;18.60;58.60
30520;DHT22;17300;50.374;8.006;2023-08-07T06:22:41;18.60;58.60
30520;DHT22;17300;50.374;8.006;2023-08-07T06:25:08;18.50;58.70
30520;DHT22;17300;50.374;8.006;2023-08-07T06:27:35;18.50;58.80
30520;DHT22;17300;50.374;8.006;2023-08-07T06:30:04;18.50;58.80
30520;DHT22;17300;50.374;8.006;2023-08-07T06:32:32;18.60;58.90
30520;DHT22;17300;50.374;8.006;2023-08-07T06:34:58;18.60;58.80
30520;DHT22;17300;50.374;8.006;2023-08-07T06:37:25;18.50;58.80
30520;DHT22;17300;50.374;8.006;2023-08-07T06:39:51;18.60;58.90
30520;DHT22;17300;50.374;8.006;2023-08-07T06:42:18;18.60;58.80
30520;DHT22;17300;50.374;8.006;2023-08-07T06:44:45;18.60;58.80
30520;DHT22;17300;50.374;8.006;2023-08-07T06:47:13;18.70;58.80
30520;DHT22;17300;50.374;8.006;2023-08-07T06:49:39;18.70;58.60
30520;DHT22;17300;50.374;8.006;2023-08-07T06:52:06;18.70;58.50
30520;DHT22;17300;50.374;8.006;2023-08-07T06:54:33;18.80;58.50
30520;DHT22;17300;50.374;8.006;2023-08-07T06:56:59;18.70;58.40
30520;DHT22;17300;50.374;8.006;2023-08-07T06:59:26;18.80;58.40
30520;DHT22;17300;50.374;8.006;2023-08-07T07:01:53;18.80;58.30
30520;DHT22;17300;50.374;8.006;2023-08-07T07:04:21;18.80;58.30
30520;DHT22;17300;50.374;8.006;2023-08-07T07:06:47;18.80;58.40
30520;DHT22;17300;50.374;8.006;2023-08-07T07:09:14;18.80;58.30
30520;DHT22;17300;50.374;8.006;2023-08-07T07:11:42;18.90;58.30
30520;DHT22;17300;50.374;8.006;2023-08-07T07:14:09;18.90;58.40
30520;DHT22;17300;50.374;8.006;2023-08-07T07:16:36;18.90;58.50
30520;DHT22;17300;50.374;8.006;2023-08-07T07:19:03;19.00;58.50
30520;DHT22;17300;50.374;8.006;2023-08-07T07:21:33;19.10;58.40
30520;DHT22;17300;50.374;8.006;2023-08-07T07:23:59;19.10;58.30
30520;DHT22;17300;50.374;8.006;2023-08-07T07:26:26;19.20;58.40
30520;DHT22;17300;50.374;8.006;2023-08-07T07:28:53;19.20;58.30
30520;DHT22;17300;50.374;8.006;2023-08-07T07:31:19;19.30;58.30
30520;DHT22;17300;50.374;8.006;2023-08-07T07:33:46;19.30;58.10
30520;DHT22;17300;50.374;8.006;2023-08-07T07:36:16;19.40;58.10
30520;DHT22;17300;50.374;8.006;2023-08-07T07:38:46;19.40;57.70
30520;DHT22;17300;50.374;8.006;2023-08-07T07:41:13;19.50;57.70
30520;DHT22;17300;50.374;8.006;2023-08-07T07:43:40;19.50;57.70
30520;DHT22;17300;50.374;8.006;2023-08-07T07:46:07;19.60;57.80
30520;DHT22;17300;50.374;8.006;2023-08-07T07:48:33;19.60;57.80
30520;DHT22;17300;50.374;8.006;2023-08-07T07:51:02;19.70;57.70
30520;DHT22;17300;50.374;8.006;2023-08-07T07:53:29;19.70;57.50
30520;DHT22;17300;50.374;8.006;2023-08-07T07:55:57;19.70;57.40
30520;DHT22;17300;50.374;8.006;2023-08-07T07:58:24;19.80;57.30
30520;DHT22;17300;50.374;8.006;2023-08-07T08:00:51;19.80;57.20
30520;DHT22;17300;50.374;8.006;2023-08-07T08:03:19;19.70;57.20
30520;DHT22;17300;50.374;8.006;2023-08-07T08:05:49;19.80;57.30
30520;DHT22;17300;50.374;8.006;2023-08-07T08:08:16;19.80;57.20
30520;DHT22;17300;50.374;8.006;2023-08-07T08:10:43;19.80;57.10
30520;DHT22;17300;50.374;8.006;2023-08-07T08:13:11;19.80;56.90
30520;DHT22;17300;50.374;8.006;2023-08-07T08:15:38;19.80;56.80
30520;DHT22;17300;50.374;8.006;2023-08-07T08:18:04;19.80;56.80
30520;DHT22;17300;50.374;8.006;2023-08-07T08:20:31;19.80;56.80
30520;DHT22;17300;50.374;8.006;2023-08-07T08:22:58;19.80;56.90
30520;DHT22;17300;50.374;8.006;2023-08-07T08:25:25;19.80;56.90
30520;DHT22;17300;50.374;8.006;2023-08-07T08:27:52;19.70;56.70
30520;DHT22;17300;50.374;8.006;2023-08-07T08:30:20;19.70;56.80
30520;DHT22;17300;50.374;8.006;2023-08-07T08:32:48;19.60;56.70
30520;DHT22;17300;50.374;8.006;2023-08-07T08:35:14;19.60;56.90
30520;DHT22;17300;50.374;8.006;2023-08-07T08:37:41;19.60;56.80
30520;DHT22;17300;50.374;8.006;2023-08-07T08:40:09;19.60;56.90
30520;DHT22;17300;50.374;8.006;2023-08-07T08:42:39;19.60;57.00
30520;DHT22;17300;50.374;8.006;2023-08-07T08:45:09;19.60;57.10
30520;DHT22;17300;50.374;8.006;2023-08-07T08:47:38;19.60;57.00
30520;DHT22;17300;50.374;8.006;2023-08-07T08:50:08;19.50;57.00
30520;DHT22;17300;50.374;8.006;2023-08-07T08:52:36;19.50;56.90
30520;DHT22;17300;50.374;8.006;2023-08-07T08:55:04;19.40;56.90
30520;DHT22;17300;50.374;8.006;2023-08-07T08:57:33;19.40;57.00
30520;DHT22;17300;50.374;8.006;2023-08-07T09:00:00;19.30;57.00
30520;DHT22;17300;50.374;8.006;2023-08-07T09:02:30;19.30;57.20
30520;DHT22;17300;50.374;8.006;2023-08-07T09:04:58;19.30;57.30
30520;DHT22;17300;50.374;8.006;2023-08-07T09:07:27;19.30;57.40
30520;DHT22;17300;50.374;8.006;2023-08-07T09:09:55;19.30;57.70
30520;DHT22;17300;50.374;8.006;2023-08-07T09:12:26;19.30;57.80
30520;DHT22;17300;50.374;8.006;2023-08-07T09:14:57;19.40;58.10
30520;DHT22;17300;50.374;8.006;2023-08-07T09:17:26;19.40;57.90
30520;DHT22;17300;50.374;8.006;2023-08-07T09:19:53;19.40;57.70
30520;DHT22;17300;50.374;8.006;2023-08-07T09:22:21;19.40;57.70
30520;DHT22;17300;50.374;8.006;2023-08-07T09:24:47;19.40;57.70
30520;DHT22;17300;50.374;8.006;2023-08-07T09:27:15;19.40;57.80
30520;DHT22;17300;50.374;8.006;2023-08-07T09:29:43;19.40;57.90
30520;DHT22;17300;50.374;8.006;2023-08-07T09:32:12;19.40;58.00
30520;DHT22;17300;50.374;8.006;2023-08-07T09:34:39;19.40;58.30
30520;DHT22;17300;50.374;8.006;2023-08-07T09:37:07;19.50;58.50
30520;DHT22;17300;50.374;8.006;2023-08-07T09:39:35;19.50;58.50
30520;DHT22;17300;50.374;8.006;2023-08-07T09:42:02;19.60;58.60
30520;DHT22;17300;50.374;8.006;2023-08-07T09:44:35;19.70;58.50
30520;DHT22;17300;50.374;8.006;2023-08-07T09:47:11;19.80;58.40
30520;DHT22;17300;50.374;8.006;2023-08-07T09:49:38;19.80;58.40
30520;DHT22;17300;50.374;8.006;2023-08-07T09:52:06;19.80;58.20
30520;DHT22;17300;50.374;8.006;2023-08-07T09:54:35;19.90;58.20
30520;DHT22;17300;50.374;8.006;2023-08-07T09:57:02;19.90;58.20
30520;DHT22;17300;50.374;8.006;2023-08-07T09:59:29;19.90;58.10
30520;DHT22;17300;50.374;8.006;2023-08-07T10:01:56;19.90;58.00
30520;DHT22;17300;50.374;8.006;2023-08-07T10:04:23;19.90;58.00
30520;DHT22;17300;50.374;8.006;2023-08-07T10:06:50;19.90;58.20
30520;DHT22;17300;50.374;8.006;2023-08-07T10:09:17;19.90;58.40
30520;DHT22;17300;50.374;8.006;2023-08-07T10:11:45;19.90;58.40
30520;DHT22;17300;50.374;8.006;2023-08-07T10:14:13;20.00;58.80
30520;DHT22;17300;50.374;8.006;2023-08-07T10:16:40;20.10;58.80
30520;DHT22;17300;50.374;8.006;2023-08-07T10:19:07;20.20;58.80
30520;DHT22;17300;50.374;8.006;2023-08-07T10:21:36;20.20;58.70
30520;DHT22;17300;50.374;8.006;2023-08-07T10:24:04;20.30;58.80
30520;DHT22;17300;50.374;8.006;2023-08-07T10:26:31;20.40;58.80
30520;DHT22;17300;50.374;8.006;2023-08-07T10:29:02;20.50;58.90
30520;DHT22;17300;50.374;8.006;2023-08-07T10:31:31;20.60;58.80
30520;DHT22;17300;50.374;8.006;2023-08-07T10:34:00;20.70;58.70
30520;DHT22;17300;50.374;8.006;2023-08-07T10:36:32;20.80;58.40
30520;DHT22;17300;50.374;8.006;2023-08-07T10:39:06;21.00;58.40
30520;DHT22;17300;50.374;8.006;2023-08-07T10:41:38;21.10;58.50
30520;DHT22;17300;50.374;8.006;2023-08-07T10:44:16;21.20;58.30
30520;DHT22;17300;50.374;8.006;2023-08-07T10:46:47;21.30;58.00
30520;DHT22;17300;50.374;8.006;2023-08-07T10:49:30;21.40;58.20
30520;DHT22;17300;50.374;8.006;2023-08-07T10:51:57;21.60;57.70
30520;DHT22;17300;50.374;8.006;2023-08-07T10:54:24;21.70;58.00
30520;DHT22;17300;50.374;8.006;2023-08-07T10:56:53;21.80;57.90
30520;DHT22;17300;50.374;8.006;2023-08-07T10:59:21;21.90;57.70
30520;DHT22;17300;50.374;8.006;2023-08-07T11:01:51;22.00;57.70
30520;DHT22;17300;50.374;8.006;2023-08-07T11:04:18;22.10;57.10
30520;DHT22;17300;50.374;8.006;2023-08-07T11:06:47;22.20;57.10
30520;DHT22;17300;50.374;8.006;2023-08-07T11:09:14;22.30;57.70
30520;DHT22;17300;50.374;8.006;2023-08-07T11:11:43;22.40;57.90
30520;DHT22;17300;50.374;8.006;2023-08-07T11:14:12;22.60;57.80
30520;DHT22;17300;50.374;8.006;2023-08-07T11:16:40;22.80;58.00
30520;DHT22;17300;50.374;8.006;2023-08-07T11:19:08;23.00;58.60
30520;DHT22;17300;50.374;8.006;2023-08-07T11:21:35;23.40;60.20
30520;DHT22;17300;50.374;8.006;2023-08-07T11:24:03;23.90;61.00
30520;DHT22;17300;50.374;8.006;2023-08-07T11:26:29;24.40;60.10
30520;DHT22;17300;50.374;8.006;2023-08-07T11:28:57;24.90;59.00
30520;DHT22;17300;50.374;8.006;2023-08-07T11:31:24;25.40;57.70
30520;DHT22;17300;50.374;8.006;2023-08-07T11:33:54;25.80;56.20
30520;DHT22;17300;50.374;8.006;2023-08-07T11:36:22;26.00;54.80
30520;DHT22;17300;50.374;8.006;2023-08-07T11:38:49;26.30;54.00
30520;DHT22;17300;50.374;8.006;2023-08-07T11:41:17;26.50;53.50
30520;DHT22;17300;50.374;8.006;2023-08-07T11:43:45;26.60;52.40
30520;DHT22;17300;50.374;8.006;2023-08-07T11:46:13;26.70;51.80
30520;DHT22;17300;50.374;8.006;2023-08-07T11:48:41;26.80;51.30
30520;DHT22;17300;50.374;8.006;2023-08-07T11:51:09;26.70;50.60
30520;DHT22;17300;50.374;8.006;2023-08-07T11:53:37;26.70;50.60
30520;DHT22;17300;50.374;8.006;2023-08-07T11:56:06;26.60;50.50
30520;DHT22;17300;50.374;8.006;2023-08-07T11:58:35;26.60;50.40
30520;DHT22;17300;50.374;8.006;2023-08-07T12:01:06;26.60;50.40
30520;DHT22;17300;50.374;8.006;2023-08-07T12:03:35;26.50;50.00
30520;DHT22;17300;50.374;8.006;2023-08-07T12:06:04;26.50;49.90
30520;DHT22;17300;50.374;8.006;2023-08-07T12:08:35;26.40;49.80
30520;DHT22;17300;50.374;8.006;2023-08-07T12:11:03;26.30;49.50
30520;DHT22;17300;50.374;8.006;2023-08-07T12:13:31;26.20;49.20
30520;DHT22;17300;50.374;8.006;2023-08-07T12:16:01;26.00;48.80
30520;DHT22;17300;50.374;8.006;2023-08-07T12:18:28;26.00;49.10
30520;DHT22;17300;50.374;8.006;2023-08-07T12:20:59;25.80;48.90
30520;DHT22;17300;50.374;8.006;2023-08-07T12:23:26;25.70;48.60
30520;DHT22;17300;50.374;8.006;2023-08-07T12:25:55;25.50;48.70
30520;DHT22;17300;50.374;8.006;2023-08-07T12:28:21;25.40;48.70
30520;DHT22;17300;50.374;8.006;2023-08-07T12:30:50;25.20;48.80
30520;DHT22;17300;50.374;8.006;2023-08-07T12:33:17;25.10;49.30
30520;DHT22;17300;50.374;8.006;2023-08-07T12:35:44;25.00;49.50
30520;DHT22;17300;50.374;8.006;2023-08-07T12:38:11;24.90;49.40
30520;DHT22;17300;50.374;8.006;2023-08-07T12:40:39;24.90;49.70
30520;DHT22;17300;50.374;8.006;2023-08-07T12:43:08;24.90;49.70
30520;DHT22;17300;50.374;8.006;2023-08-07T12:45:34;24.90;49.90
30520;DHT22;17300;50.374;8.006;2023-08-07T12:48:01;24.90;50.00
30520;DHT22;17300;50.374;8.006;2023-08-07T12:50:28;24.80;50.00
30520;DHT22;17300;50.374;8.006;2023-08-07T12:52:55;24.90;49.80
30520;DHT22;17300;50.374;8.006;2023-08-07T12:55:22;24.80;49.50
30520;DHT22;17300;50.374;8.006;2023-08-07T12:57:49;24.80;49.30
30520;DHT22;17300;50.374;8.006;2023-08-07T13:00:18;24.80;49.20
30520;DHT22;17300;50.374;8.006;2023-08-07T13:02:46;24.70;49.20
30520;DHT22;17300;50.374;8.006;2023-08-07T13:05:13;24.70;49.00
30520;DHT22;17300;50.374;8.006;2023-08-07T13:07:41;24.80;49.50
30520;DHT22;17300;50.374;8.006;2023-08-07T13:10:09;24.70;49.30
30520;DHT22;17300;50.374;8.006;2023-08-07T13:12:37;24.80;49.10
30520;DHT22;17300;50.374;8.006;2023-08-07T13:15:06;24.80;49.20
30520;DHT22;17300;50.374;8.006;2023-08-07T13:17:35;24.90;49.40
30520;DHT22;17300;50.374;8.006;2023-08-07T13:20:03;24.90;49.30
30520;DHT22;17300;50.374;8.006;2023-08-07T13:22:33;24.90;48.90
30520;DHT22;17300;50.374;8.006;2023-08-07T13:25:00;24.90;48.80
30520;DHT22;17300;50.374;8.006;2023-08-07T13:27:28;24.90;48.80
30520;DHT22;17300;50.374;8.006;2023-08-07T13:29:54;25.00;49.00
30520;DHT22;17300;50.374;8.006;2023-08-07T13:32:21;25.00;48.90
30520;DHT22;17300;50.374;8.006;2023-08-07T13:34:49;25.10;48.80
30520;DHT22;17300;50.374;8.006;2023-08-07T13:37:16;25.20;48.50
30520;DHT22;17300;50.374;8.006;2023-08-07T13:39:43;25.20;48.10
30520;DHT22;17300;50.374;8.006;2023-08-07T13:42:10;25.20;47.90
30520;DHT22;17300;50.374;8.006;2023-08-07T13:44:36;25.20;47.30
30520;DHT22;17300;50.374;8.006;2023-08-07T13:47:04;25.10;47.20
30520;DHT22;17300;50.374;8.006;2023-08-07T13:49:30;25.10;46.90
30520;DHT22;17300;50.374;8.006;2023-08-07T13:51:58;25.10;46.90
30520;DHT22;17300;50.374;8.006;2023-08-07T13:54:25;25.10;47.00
30520;DHT22;17300;50.374;8.006;2023-08-07T13:56:52;25.10;46.90
30520;DHT22;17300;50.374;8.006;2023-08-07T13:59:18;25.00;46.80
30520;DHT22;17300;50.374;8.006;2023-08-07T14:01:45;25.00;47.30
30520;DHT22;17300;50.374;8.006;2023-08-07T14:04:12;24.90;47.60
30520;DHT22;17300;50.374;8.006;2023-08-07T14:06:39;24.90;47.60
30520;DHT22;17300;50.374;8.006;2023-08-07T14:09:09;24.90;47.50
30520;DHT22;17300;50.374;8.006;2023-08-07T14:11:36;24.90;47.10
30520;DHT22;17300;50.374;8.006;2023-08-07T14:14:02;24.80;46.60
30520;DHT22;17300;50.374;8.006;2023-08-07T14:16:29;24.70;46.60
30520;DHT22;17300;50.374;8.006;2023-08-07T14:18:56;24.70;46.60
30520;DHT22;17300;50.374;8.006;2023-08-07T14:21:23;24.60;46.60
30520;DHT22;17300;50.374;8.006;2023-08-07T14:23:50;24.60;47.00
30520;DHT22;17300;50.374;8.006;2023-08-07T14:26:18;24.60;47.00
30520;DHT22;17300;50.374;8.006;2023-08-07T14:28:46;24.60;46.90
30520;DHT22;17300;50.374;8.006;2023-08-07T14:31:12;24.50;46.60
30520;DHT22;17300;50.374;8.006;2023-08-07T14:33:39;24.50;46.20
30520;DHT22;17300;50.374;8.006;2023-08-07T14:36:06;24.50;45.70
30520;DHT22;17300;50.374;8.006;2023-08-07T14:38:33;24.40;45.60
30520;DHT22;17300;50.374;8.006;2023-08-07T14:40:59;24.30;45.50
30520;DHT22;17300;50.374;8.006;2023-08-07T14:43:30;24.30;45.50
30520;DHT22;17300;50.374;8.006;2023-08-07T14:45:57;24.20;45.60
30520;DHT22;17300;50.374;8.006;2023-08-07T14:48:24;24.10;45.70
30520;DHT22;17300;50.374;8.006;2023-08-07T14:50:50;24.00;45.80
30520;DHT22;17300;50.374;8.006;2023-08-07T14:53:17;23.90;45.90
30520;DHT22;17300;50.374;8.006;2023-08-07T14:55:44;23.90;46.20
30520;DHT22;17300;50.374;8.006;2023-08-07T14:58:10;23.90;46.70
30520;DHT22;17300;50.374;8.006;2023-08-07T15:00:38;23.90;47.10
30520;DHT22;17300;50.374;8.006;2023-08-07T15:03:05;23.90;47.50
30520;DHT22;17300;50.374;8.006;2023-08-07T15:05:32;24.10;47.40
30520;DHT22;17300;50.374;8.006;2023-08-07T15:07:59;24.10;47.30
30520;DHT22;17300;50.374;8.006;2023-08-07T15:10:26;24.20;47.00
30520;DHT22;17300;50.374;8.006;2023-08-07T15:12:53;24.30;46.70
30520;DHT22;17300;50.374;8.006;2023-08-07T15:15:21;24.20;46.60
30520;DHT22;17300;50.374;8.006;2023-08-07T15:17:49;24.30;46.40
30520;DHT22;17300;50.374;8.006;2023-08-07T15:20:15;24.20;46.10
30520;DHT22;17300;50.374;8.006;2023-08-07T15:22:43;24.10;45.80
30520;DHT22;17300;50.374;8.006;2023-08-07T15:25:10;24.10;45.70
30520;DHT22;17300;50.374;8.006;2023-08-07T15:27:37;24.00;45.50
30520;DHT22;17300;50.374;8.006;2023-08-07T15:30:04;24.00;45.70
30520;DHT22;17300;50.374;8.006;2023-08-07T15:32:31;23.90;45.70